Station History


Daily Summary for February 28, 2012 Units:  English    Metric   Both
« Previous Day
Next Day »
Daily Weekly Monthly Yearly Custom
  High: Low: Average:
Temperature: 58.4 °F 35.5 °F 46.3 °F
Dew Point: 44.6 °F 34.0 °F 38.3 °F
Humidity: 97% 41% 76%
Wind Speed: 3.5mph 0.0mph 1.4mph
Wind Gust: 3.5mph - -
Wind- - SW
Pressure: 30.27 in 29.94 in -
Precipitation: 0.00 in    
Historical Graphs
 
 
Tabular Data for February 28, 2012
Time Temperature Dew Point Pressure Wind Wind Speed Wind Gust Humidity Rainfall Rate (Hourly)
00:02 42.5 °F 40.1 °F 29.94 in Calm     91% 0.00 in
00:07 42.5 °F 40.1 °F 29.95 in Calm     91% 0.00 in
00:12 42.4 °F 40.0 °F 29.95 in Calm     91% 0.00 in
00:17 42.2 °F 39.8 °F 29.95 in Calm     91% 0.00 in
00:22 42.0 °F 39.6 °F 29.96 in Calm     91% 0.00 in
00:27 41.8 °F 39.4 °F 29.96 in Calm     91% 0.00 in
00:32 41.8 °F 39.6 °F 29.96 in Calm     92% 0.00 in
00:37 41.6 °F 39.2 °F 29.97 in Calm     91% 0.00 in
00:42 41.5 °F 39.3 °F 29.97 in Calm     92% 0.00 in
00:47 41.4 °F 39.3 °F 29.97 in Calm     92% 0.00 in
00:52 41.3 °F 39.2 °F 29.97 in Calm     92% 0.00 in
00:57 41.4 °F 39.5 °F 29.97 in Calm     93% 0.00 in
01:02 41.4 °F 39.5 °F 29.97 in Calm     93% 0.00 in
01:07 41.4 °F 39.5 °F 29.98 in Calm     93% 0.00 in
01:12 41.5 °F 39.6 °F 29.98 in Calm     93% 0.00 in
01:17 41.6 °F 39.7 °F 29.99 in Calm     93% 0.00 in
01:22 41.8 °F 40.2 °F 29.99 in Calm     94% 0.00 in
01:27 41.9 °F 40.3 °F 29.99 in Calm     94% 0.00 in
01:32 42.0 °F 40.4 °F 29.99 in Calm     94% 0.00 in
01:37 42.0 °F 40.4 °F 30.00 in Calm     94% 0.00 in
01:42 41.9 °F 40.0 °F 30.00 in Calm     93% 0.00 in
01:47 41.7 °F 39.8 °F 30.00 in Calm     93% 0.00 in
01:52 41.5 °F 39.6 °F 30.00 in Calm     93% 0.00 in
01:57 41.3 °F 39.7 °F 30.00 in Calm     94% 0.00 in
02:02 41.2 °F 39.6 °F 30.00 in Calm     94% 0.00 in
02:07 41.2 °F 39.6 °F 30.01 in Calm     94% 0.00 in
02:12 41.1 °F 39.5 °F 30.01 in Calm     94% 0.00 in
02:17 40.9 °F 39.3 °F 30.01 in Calm     94% 0.00 in
02:22 40.6 °F 38.7 °F 30.01 in Calm     93% 0.00 in
02:27 40.1 °F 38.2 °F 30.01 in Calm     93% 0.00 in
02:32 39.8 °F 37.9 °F 30.01 in Calm     93% 0.00 in
02:37 39.6 °F 38.0 °F 30.02 in Calm     94% 0.00 in
02:42 39.5 °F 37.9 °F 30.02 in Calm     94% 0.00 in
02:47 39.3 °F 37.7 °F 30.02 in Calm     94% 0.00 in
02:52 39.1 °F 37.5 °F 30.02 in Calm     94% 0.00 in
02:57 38.7 °F 37.1 °F 30.03 in Calm     94% 0.00 in
03:02 38.4 °F 36.8 °F 30.03 in Calm     94% 0.00 in
03:07 38.3 °F 36.7 °F 30.03 in Calm     94% 0.00 in
03:12 38.2 °F 36.6 °F 30.03 in Calm     94% 0.00 in
03:17 37.9 °F 36.3 °F 30.04 in Calm     94% 0.00 in
03:22 37.6 °F 36.0 °F 30.04 in Calm     94% 0.00 in
03:27 37.6 °F 36.3 °F 30.04 in Calm     95% 0.00 in
03:32 37.7 °F 36.4 °F 30.05 in Calm     95% 0.00 in
03:37 37.5 °F 36.2 °F 30.05 in Calm     95% 0.00 in
03:42 37.3 °F 36.0 °F 30.05 in Calm     95% 0.00 in
03:47 37.1 °F 35.8 °F 30.05 in Calm     95% 0.00 in
03:52 36.9 °F 35.3 °F 30.06 in Calm     94% 0.00 in
03:57 36.7 °F 35.1 °F 30.06 in Calm     94% 0.00 in
04:02 36.5 °F 35.2 °F 30.06 in Calm     95% 0.00 in
04:07 36.4 °F 35.1 °F 30.06 in Calm     95% 0.00 in
04:12 36.4 °F 35.1 °F 30.07 in Calm     95% 0.00 in
04:17 36.5 °F 35.2 °F 30.07 in Calm     95% 0.00 in
04:22 36.4 °F 35.1 °F 30.07 in Calm     95% 0.00 in
04:27 36.3 °F 35.0 °F 30.08 in Calm     95% 0.00 in
04:32 36.1 °F 34.8 °F 30.08 in Calm     95% 0.00 in
04:37 36.2 °F 34.9 °F 30.08 in Calm     95% 0.00 in
04:42 36.1 °F 34.8 °F 30.08 in Calm     95% 0.00 in
04:47 36.1 °F 34.8 °F 30.08 in Calm     95% 0.00 in
04:52 36.1 °F 34.8 °F 30.09 in Calm     95% 0.00 in
04:57 36.0 °F 34.7 °F 30.09 in Calm     95% 0.00 in
05:02 35.7 °F 34.4 °F 30.09 in Calm     95% 0.00 in
05:07 35.5 °F 34.2 °F 30.10 in Calm     95% 0.00 in
05:12 35.7 °F 34.7 °F 30.11 in Calm     96% 0.00 in
05:17 36.2 °F 35.2 °F 30.11 in Calm     96% 0.00 in
05:22 36.3 °F 35.3 °F 30.12 in Calm     96% 0.00 in
05:27 36.3 °F 35.3 °F 30.12 in Calm     96% 0.00 in
05:32 36.3 °F 35.3 °F 30.12 in Calm     96% 0.00 in
05:38 36.0 °F 35.0 °F 30.12 in Calm     96% 0.00 in
05:43 35.7 °F 34.7 °F 30.13 in Calm     96% 0.00 in
05:48 35.6 °F 34.6 °F 30.13 in Calm     96% 0.00 in
05:53 35.5 °F 34.5 °F 30.13 in Calm     96% 0.00 in
05:58 35.6 °F 34.6 °F 30.13 in Calm     96% 0.00 in
06:03 35.9 °F 34.9 °F 30.13 in Calm     96% 0.00 in
06:08 36.3 °F 35.3 °F 30.13 in Calm     96% 0.00 in
06:13 36.7 °F 35.9 °F 30.13 in Calm     97% 0.00 in
06:18 37.1 °F 36.3 °F 30.13 in Calm     97% 0.00 in
06:23 37.5 °F 36.7 °F 30.13 in Calm     97% 0.00 in
06:28 37.7 °F 36.9 °F 30.14 in Calm     97% 0.00 in
06:33 37.8 °F 37.0 °F 30.15 in Calm     97% 0.00 in
06:38 37.9 °F 37.1 °F 30.15 in Calm     97% 0.00 in
06:43 38.0 °F 37.2 °F 30.16 in Calm     97% 0.00 in
06:48 38.5 °F 37.7 °F 30.16 in Calm     97% 0.00 in
06:53 38.7 °F 37.9 °F 30.16 in Calm     97% 0.00 in
06:58 38.9 °F 38.1 °F 30.16 in Calm     97% 0.00 in
07:03 39.3 °F 38.5 °F 30.16 in Calm     97% 0.00 in
07:08 39.6 °F 38.8 °F 30.17 in Calm     97% 0.00 in
07:13 39.9 °F 39.1 °F 30.17 in Calm     97% 0.00 in
07:18 40.2 °F 39.4 °F 30.17 in Calm     97% 0.00 in
07:23 40.5 °F 39.7 °F 30.18 in Calm     97% 0.00 in
07:28 40.7 °F 39.9 °F 30.18 in SW 1.1 mph   97% 0.00 in
07:33 40.8 °F 40.0 °F 30.18 in Calm     97% 0.00 in
07:38 41.1 °F 40.3 °F 30.19 in Calm     97% 0.00 in
07:43 41.3 °F 40.5 °F 30.19 in Calm     97% 0.00 in
07:48 41.5 °F 40.7 °F 30.20 in Calm     97% 0.00 in
07:53 41.6 °F 40.8 °F 30.21 in Calm     97% 0.00 in
07:58 41.5 °F 40.7 °F 30.21 in Calm     97% 0.00 in
08:03 41.7 °F 40.9 °F 30.21 in Calm     97% 0.00 in
08:08 41.9 °F 41.1 °F 30.22 in Calm     97% 0.00 in
08:13 42.1 °F 41.3 °F 30.22 in Calm     97% 0.00 in
08:18 42.3 °F 41.5 °F 30.23 in Calm     97% 0.00 in
08:23 42.5 °F 41.7 °F 30.23 in Calm     97% 0.00 in
08:28 42.6 °F 41.8 °F 30.23 in Calm     97% 0.00 in
08:33 42.7 °F 41.9 °F 30.23 in Calm     97% 0.00 in
08:38 42.9 °F 42.1 °F 30.23 in Calm     97% 0.00 in
08:43 43.0 °F 42.2 °F 30.23 in Calm     97% 0.00 in
08:48 43.3 °F 42.5 °F 30.24 in SE 1.1 mph   97% 0.00 in
08:53 43.6 °F 42.8 °F 30.24 in Calm     97% 0.00 in
08:58 43.9 °F 43.1 °F 30.24 in Calm     97% 0.00 in
09:03 44.4 °F 43.6 °F 30.24 in Calm   0.1 mph 97% 0.00 in
09:08 44.7 °F 43.9 °F 30.24 in Calm     97% 0.00 in
09:13 44.8 °F 43.7 °F 30.24 in Calm     96% 0.00 in
09:18 45.1 °F 44.0 °F 30.24 in Calm     96% 0.00 in
09:23 45.5 °F 44.4 °F 30.24 in Calm     96% 0.00 in
09:28 45.6 °F 44.3 °F 30.24 in Calm     95% 0.00 in
09:33 45.9 °F 44.5 °F 30.24 in Calm     95% 0.00 in
09:38 46.1 °F 44.2 °F 30.24 in Calm   0.3 mph 93% 0.00 in
09:43 46.3 °F 44.4 °F 30.24 in Calm   0.4 mph 93% 0.00 in
09:48 46.3 °F 43.5 °F 30.24 in Calm     90% 0.00 in
09:53 46.6 °F 44.1 °F 30.24 in Calm     91% 0.00 in
09:58 46.8 °F 43.7 °F 30.25 in SW 1.1 mph   89% 0.00 in
10:03 46.9 °F 43.2 °F 30.25 in Calm     87% 0.00 in
10:08 47.3 °F 43.9 °F 30.25 in Calm     88% 0.00 in
10:13 47.3 °F 43.3 °F 30.25 in SW 1.1 mph   86% 0.00 in
10:18 47.5 °F 43.2 °F 30.25 in SSW 1.1 mph   85% 0.00 in
10:24 48.0 °F 44.0 °F 30.25 in SW 1.1 mph   86% 0.00 in
10:29 48.4 °F 44.1 °F 30.25 in WSW 1.1 mph 1.1 mph 85% 0.00 in
10:34 48.7 °F 43.5 °F 30.25 in SW 2.3 mph 2.3 mph 82% 0.00 in
10:39 48.9 °F 44.3 °F 30.25 in Calm     84% 0.00 in
10:44 49.2 °F 43.0 °F 30.26 in SSW 2.3 mph 2.3 mph 79% 0.00 in
10:49 49.5 °F 43.3 °F 30.26 in SW 1.1 mph 1.1 mph 79% 0.00 in
10:54 49.9 °F 43.6 °F 30.26 in WSW 1.1 mph 1.1 mph 79% 0.00 in
10:59 50.3 °F 43.0 °F 30.26 in West 1.1 mph   76% 0.00 in
11:04 50.7 °F 42.7 °F 30.26 in SW 1.1 mph 1.1 mph 74% 0.00 in
11:09 50.9 °F 41.8 °F 30.26 in WSW 1.1 mph 1.1 mph 71% 0.00 in
11:14 51.4 °F 43.4 °F 30.26 in SW 1.1 mph 1.1 mph 74% 0.00 in
11:19 52.4 °F 44.0 °F 30.26 in Calm     73% 0.00 in
11:24 53.4 °F 44.6 °F 30.26 in Calm     72% 0.00 in
11:29 53.9 °F 43.6 °F 30.27 in SW 1.1 mph 1.1 mph 68% 0.00 in
11:34 54.2 °F 41.9 °F 30.27 in SSW 2.3 mph 2.3 mph 63% 0.00 in
11:39 54.5 °F 42.2 °F 30.26 in SSE 1.1 mph 1.1 mph 63% 0.00 in
11:44 54.7 °F 41.1 °F 30.26 in WNW 1.1 mph 1.1 mph 60% 0.00 in
11:49 54.6 °F 41.0 °F 30.26 in SW 2.3 mph 2.3 mph 60% 0.00 in
11:54 54.6 °F 41.4 °F 30.25 in SE 1.1 mph 1.1 mph 61% 0.00 in
11:59 55.3 °F 42.1 °F 30.25 in South 1.1 mph 1.1 mph 61% 0.00 in
12:04 55.9 °F 42.6 °F 30.25 in SSW 1.1 mph 1.1 mph 61% 0.00 in
12:09 56.1 °F 41.5 °F 30.24 in SW 1.1 mph   58% 0.00 in
12:14 56.3 °F 41.3 °F 30.24 in SSW 1.1 mph 1.1 mph 57% 0.00 in
12:19 56.3 °F 39.9 °F 30.23 in Calm     54% 0.00 in
12:24 57.1 °F 41.5 °F 30.23 in SSW 1.1 mph 1.1 mph 56% 0.00 in
12:29 57.1 °F 41.5 °F 30.23 in SSE 1.1 mph 1.1 mph 56% 0.00 in
12:34 57.5 °F 41.9 °F 30.23 in Calm     56% 0.00 in
12:35 57.6 °F 42.9 °F 30.23 in Calm     58% 0.00 in
12:40 57.8 °F 38.8 °F 30.23 in SW 1.1 mph 1.1 mph 49% 0.00 in
12:45 57.8 °F 38.8 °F 30.23 in WNW 1.1 mph 1.1 mph 49% 0.00 in
12:50 57.6 °F 38.6 °F 30.23 in WSW 1.1 mph 1.1 mph 49% 0.00 in
12:55 57.5 °F 39.5 °F 30.23 in WNW 1.1 mph   51% 0.00 in
13:00 57.3 °F 38.3 °F 30.23 in WNW 1.1 mph 1.1 mph 49% 0.00 in
13:05 57.0 °F 38.0 °F 30.23 in Calm     49% 0.00 in
13:10 56.7 °F 38.3 °F 30.22 in NNE 2.3 mph 2.3 mph 50% 0.00 in
13:15 56.5 °F 39.1 °F 30.22 in West 2.3 mph 2.3 mph 52% 0.00 in
13:20 56.7 °F 38.3 °F 30.22 in NNE 1.0 mph 1.0 mph 50% 0.00 in
13:25 56.4 °F 37.5 °F 30.22 in SSW 1.1 mph 1.1 mph 49% 0.00 in
13:30 55.8 °F 37.4 °F 30.22 in Calm     50% 0.00 in
13:35 55.7 °F 37.8 °F 30.22 in NNW 1.1 mph 1.1 mph 51% 0.00 in
13:40 55.5 °F 37.1 °F 30.22 in North 2.3 mph 2.3 mph 50% 0.00 in
13:45 55.2 °F 36.9 °F 30.22 in NW 1.1 mph 1.1 mph 50% 0.00 in
13:50 55.0 °F 37.2 °F 30.22 in NNW 2.3 mph   51% 0.00 in
13:55 55.0 °F 37.2 °F 30.22 in NNW 1.1 mph 1.1 mph 51% 0.00 in
14:00 55.2 °F 37.4 °F 30.22 in West 2.3 mph 2.3 mph 51% 0.00 in
14:05 55.2 °F 36.9 °F 30.22 in SW 1.1 mph   50% 0.00 in
14:10 55.4 °F 37.1 °F 30.21 in SW 1.1 mph   50% 0.00 in
14:15 55.6 °F 37.2 °F 30.21 in Calm     50% 0.00 in
14:20 55.7 °F 37.8 °F 30.21 in NNE 1.1 mph 1.1 mph 51% 0.00 in
14:25 55.5 °F 37.7 °F 30.21 in WNW 1.1 mph   51% 0.00 in
14:30 55.4 °F 37.1 °F 30.21 in WSW 1.1 mph 1.1 mph 50% 0.00 in
14:35 55.4 °F 36.5 °F 30.20 in NNW 1.1 mph   49% 0.00 in
14:40 55.5 °F 37.1 °F 30.21 in NNW 1.1 mph 1.1 mph 50% 0.00 in
14:45 55.4 °F 37.1 °F 30.21 in NNW 1.1 mph 1.1 mph 50% 0.00 in
14:50 55.0 °F 35.7 °F 30.21 in NNW 1.1 mph 1.1 mph 48% 0.00 in
14:55 54.6 °F 36.3 °F 30.21 in Calm   0.1 mph 50% 0.00 in
15:00 54.8 °F 36.5 °F 30.21 in WNW 2.0 mph 2.0 mph 50% 0.00 in
15:05 55.9 °F 38.0 °F 30.21 in NE 1.1 mph 1.1 mph 51% 0.00 in
15:10 57.1 °F 38.1 °F 30.21 in NNW 1.1 mph 1.1 mph 49% 0.00 in
15:15 57.9 °F 37.2 °F 30.20 in North 2.3 mph 2.3 mph 46% 0.00 in
15:20 58.4 °F 38.2 °F 30.21 in West 1.1 mph 1.1 mph 47% 0.00 in
15:25 58.3 °F 36.5 °F 30.21 in West 1.1 mph 1.1 mph 44% 0.00 in
15:30 57.8 °F 37.1 °F 30.21 in WSW 2.3 mph 2.3 mph 46% 0.00 in
15:35 57.4 °F 36.8 °F 30.21 in WNW 2.3 mph 2.3 mph 46% 0.00 in
15:36 57.2 °F 36.6 °F 30.21 in WNW 2.0 mph 2.0 mph 46% 0.00 in
15:42 56.5 °F 37.0 °F 30.21 in Calm     48% 0.00 in
15:47 56.1 °F 36.7 °F 30.20 in North 1.1 mph 1.1 mph 48% 0.00 in
15:52 55.8 °F 36.9 °F 30.21 in NE 1.1 mph 1.1 mph 49% 0.00 in
15:57 55.5 °F 36.1 °F 30.21 in West 3.5 mph 3.5 mph 48% 0.00 in
16:02 55.3 °F 37.0 °F 30.20 in NW 1.1 mph 1.1 mph 50% 0.00 in
16:07 55.2 °F 36.4 °F 30.20 in North 1.1 mph 1.1 mph 49% 0.00 in
16:12 55.5 °F 36.6 °F 30.20 in NNE 1.1 mph 1.1 mph 49% 0.00 in
16:17 56.2 °F 36.2 °F 30.20 in North 1.1 mph 1.1 mph 47% 0.00 in
16:22 56.7 °F 36.1 °F 30.20 in NW 1.1 mph 1.1 mph 46% 0.00 in
16:27 57.0 °F 35.3 °F 30.20 in NNW 2.3 mph 2.3 mph 44% 0.00 in
16:33 57.0 °F 34.7 °F 30.20 in Calm   0.1 mph 43% 0.00 in
16:38 57.2 °F 34.9 °F 30.20 in North 1.1 mph 1.1 mph 43% 0.00 in
16:43 57.5 °F 34.6 °F 30.20 in West 1.1 mph 1.1 mph 42% 0.00 in
16:48 57.5 °F 34.0 °F 30.20 in Calm     41% 0.00 in
16:53 57.1 °F 34.8 °F 30.20 in WSW 2.3 mph 2.3 mph 43% 0.00 in
16:58 56.6 °F 35.5 °F 30.20 in Calm     45% 0.00 in
17:03 56.2 °F 35.7 °F 30.20 in SW 2.3 mph 2.3 mph 46% 0.00 in
17:08 55.8 °F 35.9 °F 30.20 in North 2.3 mph 2.3 mph 47% 0.00 in
17:13 55.4 °F 35.5 °F 30.20 in North 3.5 mph 3.5 mph 47% 0.00 in
17:18 54.9 °F 35.6 °F 30.20 in NNW 1.1 mph 1.1 mph 48% 0.00 in
17:23 54.4 °F 35.6 °F 30.20 in North 3.5 mph 3.5 mph 49% 0.00 in
17:28 54.0 °F 35.8 °F 30.21 in North 1.1 mph 1.1 mph 50% 0.00 in
17:33 53.6 °F 35.9 °F 30.21 in North 2.3 mph   51% 0.00 in
17:38 53.2 °F 36.0 °F 30.21 in NNE 2.3 mph 2.3 mph 52% 0.00 in
17:43 52.9 °F 36.2 °F 30.21 in NNE 1.1 mph 1.1 mph 53% 0.00 in
17:48 52.5 °F 36.3 °F 30.21 in NNE 1.1 mph   54% 0.00 in
17:53 52.0 °F 36.3 °F 30.21 in NNE 1.1 mph 1.1 mph 55% 0.00 in
17:58 51.5 °F 36.3 °F 30.21 in NNE 1.1 mph   56% 0.00 in
18:03 51.2 °F 36.5 °F 30.21 in Calm     57% 0.00 in
18:08 50.7 °F 36.5 °F 30.22 in Calm     58% 0.00 in
18:13 50.3 °F 36.5 °F 30.22 in Calm     59% 0.00 in
18:18 50.0 °F 36.2 °F 30.23 in NNE 1.1 mph   59% 0.00 in
18:23 49.8 °F 36.5 °F 30.22 in Calm     60% 0.00 in
18:28 49.5 °F 37.0 °F 30.23 in ENE 1.0 mph 1.0 mph 62% 0.00 in
18:33 49.5 °F 37.4 °F 30.23 in Calm     63% 0.00 in
18:39 49.2 °F 37.5 °F 30.23 in Calm     64% 0.00 in
18:44 49.0 °F 37.7 °F 30.23 in Calm     65% 0.00 in
18:49 48.7 °F 37.5 °F 30.23 in Calm     65% 0.00 in
18:54 48.3 °F 37.5 °F 30.23 in Calm     66% 0.00 in
18:59 48.0 °F 37.6 °F 30.23 in Calm     67% 0.00 in
19:04 48.0 °F 37.6 °F 30.23 in Calm     67% 0.00 in
19:09 47.9 °F 37.5 °F 30.23 in Calm     67% 0.00 in
19:14 48.0 °F 37.2 °F 30.23 in Calm     66% 0.00 in
19:19 48.1 °F 36.9 °F 30.23 in Calm   0.1 mph 65% 0.00 in
19:24 48.0 °F 36.8 °F 30.23 in East 1.1 mph 1.1 mph 65% 0.00 in
19:29 47.9 °F 36.7 °F 30.23 in Calm     65% 0.00 in
19:34 47.6 °F 36.8 °F 30.23 in Calm     66% 0.00 in
19:39 47.0 °F 37.0 °F 30.22 in Calm     68% 0.00 in
19:44 46.6 °F 37.0 °F 30.22 in Calm     69% 0.00 in
19:49 46.8 °F 37.2 °F 30.23 in Calm   0.1 mph 69% 0.00 in
19:54 47.0 °F 37.0 °F 30.23 in Calm     68% 0.00 in
19:59 47.0 °F 36.6 °F 30.23 in East 1.1 mph 1.1 mph 67% 0.00 in
20:04 46.9 °F 36.5 °F 30.23 in Calm     67% 0.00 in
20:09 46.8 °F 36.4 °F 30.23 in East 1.1 mph   67% 0.00 in
20:14 46.6 °F 36.6 °F 30.23 in Calm     68% 0.00 in
20:19 46.3 °F 36.3 °F 30.23 in Calm     68% 0.00 in
20:24 45.9 °F 36.3 °F 30.23 in Calm     69% 0.00 in
20:29 45.7 °F 36.5 °F 30.23 in Calm     70% 0.00 in
20:34 45.7 °F 36.8 °F 30.23 in Calm     71% 0.00 in
20:39 45.7 °F 36.8 °F 30.23 in Calm     71% 0.00 in
20:45 45.8 °F 36.9 °F 30.24 in Calm     71% 0.00 in
20:50 45.7 °F 37.2 °F 30.24 in Calm     72% 0.00 in
20:55 45.5 °F 37.0 °F 30.23 in Calm     72% 0.00 in
21:00 45.3 °F 37.2 °F 30.24 in Calm     73% 0.00 in
21:01 45.3 °F 37.2 °F 30.24 in Calm     73% 0.00 in
21:06 45.2 °F 37.4 °F 30.23 in Calm     74% 0.00 in
21:11 45.1 °F 37.3 °F 30.23 in Calm     74% 0.00 in
21:16 45.0 °F 37.6 °F 30.23 in Calm     75% 0.00 in
21:21 44.8 °F 37.4 °F 30.23 in Calm     75% 0.00 in
21:26 45.1 °F 37.6 °F 30.23 in Calm     75% 0.00 in
21:31 45.1 °F 37.6 °F 30.23 in Calm     75% 0.00 in
21:37 44.8 °F 37.4 °F 30.23 in Calm     75% 0.00 in
21:42 44.4 °F 37.6 °F 30.23 in Calm     77% 0.00 in
21:47 44.1 °F 37.3 °F 30.23 in Calm     77% 0.00 in
21:52 43.9 °F 37.5 °F 30.23 in Calm     78% 0.00 in
21:57 43.9 °F 37.8 °F 30.23 in Calm     79% 0.00 in
22:02 43.7 °F 37.6 °F 30.23 in Calm     79% 0.00 in
22:07 43.6 °F 37.5 °F 30.23 in Calm     79% 0.00 in
22:12 43.3 °F 37.2 °F 30.23 in Calm     79% 0.00 in
22:17 43.1 °F 37.3 °F 30.23 in Calm     80% 0.00 in
22:22 43.0 °F 37.6 °F 30.23 in Calm     81% 0.00 in
22:27 43.2 °F 37.8 °F 30.23 in ESE 1.1 mph   81% 0.00 in
22:32 43.2 °F 37.4 °F 30.24 in Calm     80% 0.00 in
22:37 43.0 °F 37.3 °F 30.24 in Calm     80% 0.00 in
22:42 42.7 °F 37.0 °F 30.24 in Calm     80% 0.00 in
22:47 42.6 °F 37.5 °F 30.24 in Calm     82% 0.00 in
22:52 42.5 °F 37.4 °F 30.24 in Calm     82% 0.00 in
22:57 42.4 °F 37.3 °F 30.24 in Calm     82% 0.00 in
23:02 42.2 °F 37.1 °F 30.24 in Calm     82% 0.00 in
23:07 41.9 °F 36.8 °F 30.24 in Calm     82% 0.00 in
23:12 41.5 °F 36.4 °F 30.24 in Calm     82% 0.00 in
23:17 41.1 °F 36.3 °F 30.23 in Calm     83% 0.00 in
23:22 41.0 °F 36.8 °F 30.23 in Calm     85% 0.00 in
23:27 41.1 °F 36.9 °F 30.24 in Calm     85% 0.00 in
23:33 41.0 °F 36.8 °F 30.23 in Calm     85% 0.00 in
23:38 40.8 °F 36.6 °F 30.24 in Calm     85% 0.00 in
23:43 40.6 °F 36.4 °F 30.24 in Calm     85% 0.00 in
23:48 40.5 °F 36.6 °F 30.24 in Calm     86% 0.00 in
23:53 40.4 °F 36.5 °F 30.24 in Calm     86% 0.00 in
23:58 40.3 °F 36.7 °F 30.24 in Calm     87% 0.00 in
Compliments of Weather Underground